createdAt,value
2023-02-19T00:01:55.117Z,4.40
2023-02-19T00:11:55.133Z,1.12
2023-02-19T00:21:55.161Z,4.15
2023-02-19T00:31:55.286Z,3.46
2023-02-19T00:41:55.614Z,1.56
2023-02-19T00:51:56.218Z,2.42
2023-02-19T01:01:56.435Z,3.71
2023-02-19T01:11:57.309Z,1.38
2023-02-19T01:21:57.275Z,2.51
2023-02-19T01:32:00.465Z,1.82
2023-02-19T01:42:00.258Z,4.59
2023-02-19T01:52:00.298Z,2.43
2023-02-19T02:02:00.330Z,2.17
2023-02-19T02:12:00.261Z,3.74
2023-02-19T02:22:00.937Z,6.26
2023-02-19T02:32:01.403Z,5.73
2023-02-19T02:42:25.705Z,6.67
2023-02-19T02:52:44.905Z,5.71
2023-02-19T03:02:45.429Z,6.74
2023-02-19T03:13:03.926Z,6.47
2023-02-19T03:23:04.374Z,4.31
2023-02-19T03:33:07.135Z,6.90
2023-02-19T03:43:09.982Z,7.42
2023-02-19T03:53:10.632Z,4.83
2023-02-19T04:03:10.823Z,8.54
2023-02-19T04:13:11.453Z,7.08
2023-02-19T04:23:11.502Z,6.74
2023-02-19T04:33:11.492Z,6.48
2023-02-19T04:43:11.550Z,6.40
2023-02-19T04:53:11.764Z,3.63
2023-02-19T05:03:11.469Z,7.01
2023-02-19T05:13:11.510Z,6.32
2023-02-19T05:23:11.519Z,5.20
2023-02-19T05:33:13.280Z,5.03
2023-02-19T05:43:13.508Z,7.81
2023-02-19T05:53:13.521Z,5.73
2023-02-19T06:03:13.570Z,8.95
2023-02-19T06:13:13.580Z,5.91
2023-02-19T06:23:13.584Z,5.57
2023-02-19T06:33:13.656Z,4.18
2023-02-19T06:43:13.623Z,4.44
2023-02-19T06:53:13.598Z,5.31
2023-02-19T07:03:13.730Z,4.88
2023-02-19T07:13:13.662Z,4.18
2023-02-19T07:23:13.655Z,6.36
2023-02-19T07:33:13.737Z,4.54
2023-02-19T07:43:13.674Z,4.98
2023-02-19T07:53:19.707Z,3.76
2023-02-19T08:03:19.820Z,1.93
2023-02-19T08:13:20.026Z,2.80
2023-02-19T08:23:20.670Z,3.51
2023-02-19T08:33:20.910Z,4.87
2023-02-19T08:43:20.768Z,3.28
2023-02-19T08:53:20.780Z,3.29
2023-02-19T09:03:20.798Z,3.38
2023-02-19T09:13:20.804Z,3.54
2023-02-19T09:23:20.832Z,3.46
2023-02-19T09:33:23.940Z,2.35
2023-02-19T09:43:23.932Z,2.73
2023-02-19T09:53:23.846Z,4.79
2023-02-19T10:03:25.101Z,2.00
2023-02-19T10:13:24.942Z,3.89
2023-02-19T10:23:24.901Z,3.18
2023-02-19T10:33:24.990Z,3.00
2023-02-19T10:43:26.950Z,1.28
2023-02-19T10:53:28.822Z,2.60
2023-02-19T11:03:28.948Z,1.49
2023-02-19T11:13:30.591Z,3.48
2023-02-19T11:23:31.018Z,3.10
2023-02-19T11:33:31.110Z,2.21
2023-02-19T11:43:31.038Z,5.86
2023-02-19T11:53:31.709Z,1.92
2023-02-19T12:03:32.163Z,2.56
2023-02-19T12:13:32.131Z,0.93
2023-02-19T12:23:32.051Z,4.12
2023-02-19T12:33:32.197Z,1.83
2023-02-19T12:43:32.141Z,2.28
2023-02-19T12:53:32.107Z,4.13
2023-02-19T13:03:32.103Z,3.31
2023-02-19T13:13:32.235Z,3.23
2023-02-19T13:23:50.513Z,3.05
2023-02-19T13:33:50.152Z,4.85
2023-02-19T13:43:50.211Z,4.11
2023-02-19T13:53:51.274Z,5.84
2023-02-19T14:03:51.687Z,5.20
2023-02-19T14:13:52.338Z,4.02
2023-02-19T14:23:52.231Z,6.32
2023-02-19T14:33:52.216Z,7.38
2023-02-19T14:43:52.298Z,4.77
2023-02-19T14:53:52.270Z,3.20
2023-02-19T15:03:52.304Z,1.73
2023-02-19T15:13:52.334Z,2.00
2023-02-19T15:23:52.279Z,3.00
2023-02-19T15:33:52.323Z,2.37
2023-02-19T15:43:53.585Z,3.55
2023-02-19T15:53:53.313Z,5.09
2023-02-19T16:03:53.714Z,4.18
2023-02-19T16:13:53.352Z,4.71
2023-02-19T16:23:54.538Z,4.26
2023-02-19T16:33:54.469Z,4.26
2023-02-19T16:43:54.367Z,3.34
2023-02-19T16:53:54.486Z,3.97
2023-02-19T17:03:54.505Z,0.99
2023-02-19T17:13:54.452Z,3.26
2023-02-19T17:23:55.400Z,0.27
2023-02-19T17:33:55.446Z,1.09
2023-02-19T17:43:55.489Z,1.09
2023-02-19T17:53:55.954Z,0.64
2023-02-19T18:03:56.539Z,0.91
2023-02-19T18:13:56.603Z,1.46
2023-02-19T18:23:56.535Z,1.46
2023-02-19T18:33:56.560Z,1.82
2023-02-19T18:43:56.555Z,0.82
2023-02-19T18:53:57.968Z,0.73
2023-02-19T19:03:58.535Z,0.73
2023-02-19T19:13:58.593Z,0.46
2023-02-19T19:23:58.657Z,0.46
2023-02-19T19:33:58.593Z,0.37
2023-02-19T19:43:58.703Z,0.18
2023-02-19T19:53:58.691Z,0.64
2023-02-19T20:03:58.638Z,0.46
2023-02-19T20:13:58.664Z,2.46
2023-02-19T20:23:58.719Z,1.19
2023-02-19T20:33:58.705Z,0.18
2023-02-19T20:43:58.707Z,0.18
2023-02-19T20:53:58.738Z,0.64
2023-02-19T21:03:58.702Z,0.27
2023-02-19T21:13:59.027Z,0.64
2023-02-19T21:23:59.799Z,0.46
2023-02-19T21:33:59.728Z,0.91
2023-02-19T21:43:59.781Z,0.82
2023-02-19T21:53:59.806Z,0.36
2023-02-19T22:03:59.819Z,0.36
2023-02-19T22:13:59.786Z,0.73
2023-02-19T22:23:59.844Z,0.82
2023-02-19T22:33:59.792Z,0.36
2023-02-19T22:43:59.827Z,0.91
2023-02-19T22:54:01.082Z,0.54
2023-02-19T23:04:01.051Z,0.81
2023-02-19T23:14:00.848Z,0.63
2023-02-19T23:24:00.919Z,0.90
2023-02-19T23:34:00.940Z,1.80
2023-02-19T23:44:01.003Z,1.35
2023-02-19T23:54:00.951Z,1.44
